Terminal Aerodrome Forecast
Issued by NWS

Home | Current Version | Previous Version | Text Only | Print | Product List | Glossary On
Versions: 1 2 3 4 5 6 7 8 9 10 11 12 13 14 15 16
790
FTUS42 KTBW 211138
TAFLAL
TAF
KLAL 211138Z 2112/2212 VRB03KT 5SM BR BKN015
      TEMPO 2112/2113 1/2SM FG BKN003
     FM211400 18008KT P6SM FEW025 SCT250
     FM211800 21012G20KT P6SM SCT030 BKN250
     FM220000 18007KT P6SM BKN250=

USA.gov is the U.S. government's official web portal to all federal, state and local government web resources and services.